sensor_id;sensor_type;location;lat;lon;timestamp;P1;durP1;ratioP1;P2;durP2;ratioP2
48853;SDS011;34673;52.808;17.856;2023-08-12T00:01:11;14.55;;;6.60;;
48853;SDS011;34673;52.808;17.856;2023-08-12T00:03:38;11.63;;;6.57;;
48853;SDS011;34673;52.808;17.856;2023-08-12T00:06:06;17.45;;;6.75;;
48853;SDS011;34673;52.808;17.856;2023-08-12T00:08:33;12.50;;;6.45;;
48853;SDS011;34673;52.808;17.856;2023-08-12T00:11:00;16.45;;;7.15;;
48853;SDS011;34673;52.808;17.856;2023-08-12T00:13:28;12.38;;;7.10;;
48853;SDS011;34673;52.808;17.856;2023-08-12T00:15:55;14.45;;;7.50;;
48853;SDS011;34673;52.808;17.856;2023-08-12T00:18:22;13.77;;;6.72;;
48853;SDS011;34673;52.808;17.856;2023-08-12T00:20:50;12.40;;;5.90;;
48853;SDS011;34673;52.808;17.856;2023-08-12T00:23:18;16.10;;;7.45;;
48853;SDS011;34673;52.808;17.856;2023-08-12T00:25:45;13.73;;;7.22;;
48853;SDS011;34673;52.808;17.856;2023-08-12T00:28:12;11.90;;;6.57;;
48853;SDS011;34673;52.808;17.856;2023-08-12T00:30:40;12.95;;;6.78;;
48853;SDS011;34673;52.808;17.856;2023-08-12T00:33:07;13.50;;;6.70;;
48853;SDS011;34673;52.808;17.856;2023-08-12T00:35:35;12.82;;;7.00;;
48853;SDS011;34673;52.808;17.856;2023-08-12T00:38:02;15.65;;;6.70;;
48853;SDS011;34673;52.808;17.856;2023-08-12T00:40:29;13.23;;;6.90;;
48853;SDS011;34673;52.808;17.856;2023-08-12T00:42:57;15.75;;;6.63;;
48853;SDS011;34673;52.808;17.856;2023-08-12T00:45:24;13.73;;;7.25;;
48853;SDS011;34673;52.808;17.856;2023-08-12T00:47:51;13.52;;;6.57;;
48853;SDS011;34673;52.808;17.856;2023-08-12T00:50:18;10.63;;;6.32;;
48853;SDS011;34673;52.808;17.856;2023-08-12T00:52:46;16.30;;;6.97;;
48853;SDS011;34673;52.808;17.856;2023-08-12T00:55:15;13.13;;;7.10;;
48853;SDS011;34673;52.808;17.856;2023-08-12T00:57:44;14.13;;;7.15;;
48853;SDS011;34673;52.808;17.856;2023-08-12T01:00:11;14.18;;;6.75;;
48853;SDS011;34673;52.808;17.856;2023-08-12T01:02:39;14.43;;;7.32;;
48853;SDS011;34673;52.808;17.856;2023-08-12T01:05:12;15.48;;;7.32;;
48853;SDS011;34673;52.808;17.856;2023-08-12T01:07:39;16.85;;;6.80;;
48853;SDS011;34673;52.808;17.856;2023-08-12T01:10:06;15.18;;;7.15;;
48853;SDS011;34673;52.808;17.856;2023-08-12T01:12:37;15.07;;;7.30;;
48853;SDS011;34673;52.808;17.856;2023-08-12T01:15:13;13.77;;;6.53;;
48853;SDS011;34673;52.808;17.856;2023-08-12T01:17:44;13.50;;;7.07;;
48853;SDS011;34673;52.808;17.856;2023-08-12T01:20:14;14.13;;;6.43;;
48853;SDS011;34673;52.808;17.856;2023-08-12T01:22:42;15.45;;;5.97;;
48853;SDS011;34673;52.808;17.856;2023-08-12T01:25:11;11.88;;;6.35;;
48853;SDS011;34673;52.808;17.856;2023-08-12T01:27:38;11.85;;;6.68;;
48853;SDS011;34673;52.808;17.856;2023-08-12T01:30:05;13.65;;;5.93;;
48853;SDS011;34673;52.808;17.856;2023-08-12T01:32:36;9.55;;;5.22;;
48853;SDS011;34673;52.808;17.856;2023-08-12T01:37:45;10.20;;;5.90;;
48853;SDS011;34673;52.808;17.856;2023-08-12T01:40:13;12.90;;;5.63;;
48853;SDS011;34673;52.808;17.856;2023-08-12T01:42:42;10.88;;;5.05;;
48853;SDS011;34673;52.808;17.856;2023-08-12T01:45:09;14.20;;;5.95;;
48853;SDS011;34673;52.808;17.856;2023-08-12T01:47:37;11.63;;;5.85;;
48853;SDS011;34673;52.808;17.856;2023-08-12T01:50:05;11.20;;;5.80;;
48853;SDS011;34673;52.808;17.856;2023-08-12T01:52:33;14.25;;;5.65;;
48853;SDS011;34673;52.808;17.856;2023-08-12T01:55:00;13.82;;;6.28;;
48853;SDS011;34673;52.808;17.856;2023-08-12T01:57:27;11.07;;;5.75;;
48853;SDS011;34673;52.808;17.856;2023-08-12T01:59:54;12.80;;;6.13;;
48853;SDS011;34673;52.808;17.856;2023-08-12T02:02:21;12.40;;;6.50;;
48853;SDS011;34673;52.808;17.856;2023-08-12T02:04:49;12.35;;;5.82;;
48853;SDS011;34673;52.808;17.856;2023-08-12T02:07:16;11.02;;;5.75;;
48853;SDS011;34673;52.808;17.856;2023-08-12T02:09:43;13.27;;;6.25;;
48853;SDS011;34673;52.808;17.856;2023-08-12T02:12:11;11.70;;;6.20;;
48853;SDS011;34673;52.808;17.856;2023-08-12T02:14:38;12.70;;;6.50;;
48853;SDS011;34673;52.808;17.856;2023-08-12T02:17:05;15.07;;;7.38;;
48853;SDS011;34673;52.808;17.856;2023-08-12T02:19:33;16.98;;;7.53;;
48853;SDS011;34673;52.808;17.856;2023-08-12T02:22:01;16.17;;;7.65;;
48853;SDS011;34673;52.808;17.856;2023-08-12T02:24:30;13.20;;;7.40;;
48853;SDS011;34673;52.808;17.856;2023-08-12T02:26:57;14.38;;;7.65;;
48853;SDS011;34673;52.808;17.856;2023-08-12T02:29:24;16.88;;;7.38;;
48853;SDS011;34673;52.808;17.856;2023-08-12T02:31:52;16.88;;;7.05;;
48853;SDS011;34673;52.808;17.856;2023-08-12T02:34:19;12.32;;;7.68;;
48853;SDS011;34673;52.808;17.856;2023-08-12T02:36:46;13.23;;;7.60;;
48853;SDS011;34673;52.808;17.856;2023-08-12T02:39:13;14.52;;;7.35;;
48853;SDS011;34673;52.808;17.856;2023-08-12T02:41:40;12.20;;;7.22;;
48853;SDS011;34673;52.808;17.856;2023-08-12T02:44:08;11.70;;;6.93;;
48853;SDS011;34673;52.808;17.856;2023-08-12T02:46:35;13.90;;;6.55;;
48853;SDS011;34673;52.808;17.856;2023-08-12T02:49:02;12.88;;;7.10;;
48853;SDS011;34673;52.808;17.856;2023-08-12T02:51:29;12.43;;;6.80;;
48853;SDS011;34673;52.808;17.856;2023-08-12T02:53:56;11.98;;;7.20;;
48853;SDS011;34673;52.808;17.856;2023-08-12T02:56:23;15.90;;;7.00;;
48853;SDS011;34673;52.808;17.856;2023-08-12T02:58:51;13.60;;;6.38;;
48853;SDS011;34673;52.808;17.856;2023-08-12T03:01:20;12.57;;;6.70;;
48853;SDS011;34673;52.808;17.856;2023-08-12T03:03:48;11.27;;;6.60;;
48853;SDS011;34673;52.808;17.856;2023-08-12T03:06:15;14.68;;;6.60;;
48853;SDS011;34673;52.808;17.856;2023-08-12T03:08:42;12.23;;;6.80;;
48853;SDS011;34673;52.808;17.856;2023-08-12T03:11:09;9.98;;;6.20;;
48853;SDS011;34673;52.808;17.856;2023-08-12T03:13:37;15.45;;;6.60;;
48853;SDS011;34673;52.808;17.856;2023-08-12T03:16:04;10.93;;;6.20;;
48853;SDS011;34673;52.808;17.856;2023-08-12T03:18:31;10.50;;;6.20;;
48853;SDS011;34673;52.808;17.856;2023-08-12T03:20:59;10.13;;;5.45;;
48853;SDS011;34673;52.808;17.856;2023-08-12T03:23:26;10.77;;;5.53;;
48853;SDS011;34673;52.808;17.856;2023-08-12T03:25:57;10.55;;;5.90;;
48853;SDS011;34673;52.808;17.856;2023-08-12T03:28:24;10.77;;;6.00;;
48853;SDS011;34673;52.808;17.856;2023-08-12T03:30:52;12.00;;;5.90;;
48853;SDS011;34673;52.808;17.856;2023-08-12T03:33:23;11.27;;;6.00;;
48853;SDS011;34673;52.808;17.856;2023-08-12T03:35:51;12.13;;;6.25;;
48853;SDS011;34673;52.808;17.856;2023-08-12T03:38:19;13.10;;;5.88;;
48853;SDS011;34673;52.808;17.856;2023-08-12T03:40:46;9.95;;;6.25;;
48853;SDS011;34673;52.808;17.856;2023-08-12T03:43:15;10.23;;;5.70;;
48853;SDS011;34673;52.808;17.856;2023-08-12T03:45:44;12.82;;;6.07;;
48853;SDS011;34673;52.808;17.856;2023-08-12T03:48:14;11.93;;;6.22;;
48853;SDS011;34673;52.808;17.856;2023-08-12T03:50:41;11.52;;;6.20;;
48853;SDS011;34673;52.808;17.856;2023-08-12T03:53:09;14.98;;;6.10;;
48853;SDS011;34673;52.808;17.856;2023-08-12T03:55:37;10.45;;;6.38;;
48853;SDS011;34673;52.808;17.856;2023-08-12T03:58:07;13.70;;;6.10;;
48853;SDS011;34673;52.808;17.856;2023-08-12T04:00:34;12.27;;;6.00;;
48853;SDS011;34673;52.808;17.856;2023-08-12T04:03:02;11.60;;;6.57;;
48853;SDS011;34673;52.808;17.856;2023-08-12T04:05:29;11.57;;;6.22;;
48853;SDS011;34673;52.808;17.856;2023-08-12T04:07:56;13.13;;;5.82;;
48853;SDS011;34673;52.808;17.856;2023-08-12T04:10:24;11.65;;;6.45;;
48853;SDS011;34673;52.808;17.856;2023-08-12T04:12:52;13.55;;;6.85;;
48853;SDS011;34673;52.808;17.856;2023-08-12T04:15:19;11.98;;;5.88;;
48853;SDS011;34673;52.808;17.856;2023-08-12T04:17:47;13.10;;;6.35;;
48853;SDS011;34673;52.808;17.856;2023-08-12T04:20:15;13.75;;;6.68;;
48853;SDS011;34673;52.808;17.856;2023-08-12T04:22:42;12.20;;;6.85;;
48853;SDS011;34673;52.808;17.856;2023-08-12T04:25:09;14.93;;;6.80;;
48853;SDS011;34673;52.808;17.856;2023-08-12T04:27:36;10.68;;;6.03;;
48853;SDS011;34673;52.808;17.856;2023-08-12T04:30:03;11.93;;;5.95;;
48853;SDS011;34673;52.808;17.856;2023-08-12T04:32:31;9.40;;;5.95;;
48853;SDS011;34673;52.808;17.856;2023-08-12T04:34:59;13.20;;;6.95;;
48853;SDS011;34673;52.808;17.856;2023-08-12T04:37:26;11.25;;;6.55;;
48853;SDS011;34673;52.808;17.856;2023-08-12T04:39:56;13.07;;;6.07;;
48853;SDS011;34673;52.808;17.856;2023-08-12T04:42:23;11.13;;;5.82;;
48853;SDS011;34673;52.808;17.856;2023-08-12T04:44:51;11.48;;;6.38;;
48853;SDS011;34673;52.808;17.856;2023-08-12T04:47:19;11.80;;;6.00;;
48853;SDS011;34673;52.808;17.856;2023-08-12T04:49:46;12.18;;;5.80;;
48853;SDS011;34673;52.808;17.856;2023-08-12T04:52:13;13.80;;;6.20;;
48853;SDS011;34673;52.808;17.856;2023-08-12T04:54:40;11.30;;;5.75;;
48853;SDS011;34673;52.808;17.856;2023-08-12T04:57:08;14.85;;;6.50;;
48853;SDS011;34673;52.808;17.856;2023-08-12T04:59:35;9.35;;;5.47;;
48853;SDS011;34673;52.808;17.856;2023-08-12T05:02:02;10.95;;;5.70;;
48853;SDS011;34673;52.808;17.856;2023-08-12T05:04:33;11.32;;;5.50;;
48853;SDS011;34673;52.808;17.856;2023-08-12T05:07:00;10.85;;;5.88;;
48853;SDS011;34673;52.808;17.856;2023-08-12T05:09:27;11.57;;;5.47;;
48853;SDS011;34673;52.808;17.856;2023-08-12T05:11:56;11.82;;;5.80;;
48853;SDS011;34673;52.808;17.856;2023-08-12T05:14:23;10.23;;;5.60;;
48853;SDS011;34673;52.808;17.856;2023-08-12T05:16:50;39.20;;;6.72;;
48853;SDS011;34673;52.808;17.856;2023-08-12T05:19:17;11.30;;;5.97;;
48853;SDS011;34673;52.808;17.856;2023-08-12T05:21:45;11.02;;;6.10;;
48853;SDS011;34673;52.808;17.856;2023-08-12T05:24:12;11.82;;;5.88;;
48853;SDS011;34673;52.808;17.856;2023-08-12T05:26:39;9.93;;;6.05;;
48853;SDS011;34673;52.808;17.856;2023-08-12T05:29:06;11.93;;;6.07;;
48853;SDS011;34673;52.808;17.856;2023-08-12T05:31:34;10.95;;;5.70;;
48853;SDS011;34673;52.808;17.856;2023-08-12T05:34:01;14.35;;;5.80;;
48853;SDS011;34673;52.808;17.856;2023-08-12T05:36:28;9.25;;;5.65;;
48853;SDS011;34673;52.808;17.856;2023-08-12T05:38:55;10.15;;;5.15;;
48853;SDS011;34673;52.808;17.856;2023-08-12T05:41:22;7.82;;;4.57;;
48853;SDS011;34673;52.808;17.856;2023-08-12T05:43:50;12.35;;;4.90;;
48853;SDS011;34673;52.808;17.856;2023-08-12T05:46:17;9.30;;;4.70;;
48853;SDS011;34673;52.808;17.856;2023-08-12T05:48:44;9.27;;;4.50;;
48853;SDS011;34673;52.808;17.856;2023-08-12T05:51:11;8.10;;;4.28;;
48853;SDS011;34673;52.808;17.856;2023-08-12T05:53:39;9.05;;;4.47;;
48853;SDS011;34673;52.808;17.856;2023-08-12T05:56:06;9.18;;;4.07;;
48853;SDS011;34673;52.808;17.856;2023-08-12T05:58:34;11.15;;;4.43;;
48853;SDS011;34673;52.808;17.856;2023-08-12T06:01:01;9.25;;;4.38;;
48853;SDS011;34673;52.808;17.856;2023-08-12T06:03:29;10.57;;;3.78;;
48853;SDS011;34673;52.808;17.856;2023-08-12T06:05:56;9.93;;;3.88;;
48853;SDS011;34673;52.808;17.856;2023-08-12T06:08:24;7.47;;;3.70;;
48853;SDS011;34673;52.808;17.856;2023-08-12T06:10:51;11.10;;;3.60;;
48853;SDS011;34673;52.808;17.856;2023-08-12T06:13:18;9.32;;;3.53;;
48853;SDS011;34673;52.808;17.856;2023-08-12T06:15:45;7.60;;;3.33;;
48853;SDS011;34673;52.808;17.856;2023-08-12T06:18:13;6.80;;;3.15;;
48853;SDS011;34673;52.808;17.856;2023-08-12T06:20:40;9.38;;;3.08;;
48853;SDS011;34673;52.808;17.856;2023-08-12T06:23:07;5.22;;;2.85;;
48853;SDS011;34673;52.808;17.856;2023-08-12T06:25:34;6.13;;;2.70;;
48853;SDS011;34673;52.808;17.856;2023-08-12T06:28:03;6.38;;;2.80;;
48853;SDS011;34673;52.808;17.856;2023-08-12T06:30:31;6.45;;;2.90;;
48853;SDS011;34673;52.808;17.856;2023-08-12T06:32:58;5.10;;;2.30;;
48853;SDS011;34673;52.808;17.856;2023-08-12T06:35:25;6.15;;;2.90;;
48853;SDS011;34673;52.808;17.856;2023-08-12T06:37:52;7.28;;;2.78;;
48853;SDS011;34673;52.808;17.856;2023-08-12T06:40:20;6.57;;;2.50;;
48853;SDS011;34673;52.808;17.856;2023-08-12T06:42:47;6.43;;;3.00;;
48853;SDS011;34673;52.808;17.856;2023-08-12T06:45:14;5.25;;;2.78;;
48853;SDS011;34673;52.808;17.856;2023-08-12T06:47:41;5.38;;;2.30;;
48853;SDS011;34673;52.808;17.856;2023-08-12T06:50:08;7.40;;;2.55;;
48853;SDS011;34673;52.808;17.856;2023-08-12T06:52:36;8.00;;;2.30;;
48853;SDS011;34673;52.808;17.856;2023-08-12T06:55:03;6.97;;;2.40;;
48853;SDS011;34673;52.808;17.856;2023-08-12T06:57:31;6.40;;;2.40;;
48853;SDS011;34673;52.808;17.856;2023-08-12T06:59:58;5.15;;;2.03;;
48853;SDS011;34673;52.808;17.856;2023-08-12T07:02:25;7.13;;;2.00;;
48853;SDS011;34673;52.808;17.856;2023-08-12T07:04:52;4.78;;;2.35;;
48853;SDS011;34673;52.808;17.856;2023-08-12T07:07:19;6.10;;;2.03;;
48853;SDS011;34673;52.808;17.856;2023-08-12T07:09:46;4.03;;;1.90;;
48853;SDS011;34673;52.808;17.856;2023-08-12T07:12:14;4.55;;;2.28;;
48853;SDS011;34673;52.808;17.856;2023-08-12T07:14:41;4.90;;;2.00;;
48853;SDS011;34673;52.808;17.856;2023-08-12T07:17:08;4.53;;;1.95;;
48853;SDS011;34673;52.808;17.856;2023-08-12T07:19:35;7.05;;;2.13;;
48853;SDS011;34673;52.808;17.856;2023-08-12T07:22:03;7.28;;;2.20;;
48853;SDS011;34673;52.808;17.856;2023-08-12T07:24:30;6.63;;;2.03;;
48853;SDS011;34673;52.808;17.856;2023-08-12T07:26:58;5.45;;;2.38;;
48853;SDS011;34673;52.808;17.856;2023-08-12T07:29:25;10.18;;;3.03;;
48853;SDS011;34673;52.808;17.856;2023-08-12T07:31:52;6.10;;;2.10;;
48853;SDS011;34673;52.808;17.856;2023-08-12T07:34:20;6.82;;;2.05;;
48853;SDS011;34673;52.808;17.856;2023-08-12T07:36:47;7.88;;;1.95;;
48853;SDS011;34673;52.808;17.856;2023-08-12T07:39:14;5.90;;;2.10;;
48853;SDS011;34673;52.808;17.856;2023-08-12T07:41:42;4.15;;;1.90;;
48853;SDS011;34673;52.808;17.856;2023-08-12T07:44:09;6.05;;;2.45;;
48853;SDS011;34673;52.808;17.856;2023-08-12T07:46:36;6.03;;;2.10;;
48853;SDS011;34673;52.808;17.856;2023-08-12T07:49:04;4.35;;;1.90;;
48853;SDS011;34673;52.808;17.856;2023-08-12T07:51:31;5.90;;;2.30;;
48853;SDS011;34673;52.808;17.856;2023-08-12T07:53:58;6.45;;;2.22;;
48853;SDS011;34673;52.808;17.856;2023-08-12T07:56:26;7.85;;;1.95;;
48853;SDS011;34673;52.808;17.856;2023-08-12T07:58:53;5.38;;;2.10;;
48853;SDS011;34673;52.808;17.856;2023-08-12T08:01:20;3.97;;;2.05;;
48853;SDS011;34673;52.808;17.856;2023-08-12T08:03:47;5.57;;;2.25;;
48853;SDS011;34673;52.808;17.856;2023-08-12T08:06:14;5.80;;;1.90;;
48853;SDS011;34673;52.808;17.856;2023-08-12T08:08:42;6.00;;;2.35;;
48853;SDS011;34673;52.808;17.856;2023-08-12T08:11:09;6.15;;;2.25;;
48853;SDS011;34673;52.808;17.856;2023-08-12T08:13:36;6.47;;;2.00;;
48853;SDS011;34673;52.808;17.856;2023-08-12T08:16:03;5.18;;;2.30;;
48853;SDS011;34673;52.808;17.856;2023-08-12T08:18:31;3.00;;;1.67;;
48853;SDS011;34673;52.808;17.856;2023-08-12T08:20:58;5.30;;;1.73;;
48853;SDS011;34673;52.808;17.856;2023-08-12T08:23:31;5.90;;;1.80;;
48853;SDS011;34673;52.808;17.856;2023-08-12T08:25:58;3.92;;;1.65;;
48853;SDS011;34673;52.808;17.856;2023-08-12T08:28:26;6.65;;;1.83;;
48853;SDS011;34673;52.808;17.856;2023-08-12T08:30:53;6.43;;;1.80;;
48853;SDS011;34673;52.808;17.856;2023-08-12T08:33:20;4.35;;;1.90;;
48853;SDS011;34673;52.808;17.856;2023-08-12T08:35:47;4.03;;;1.63;;
48853;SDS011;34673;52.808;17.856;2023-08-12T08:38:15;7.65;;;2.10;;
48853;SDS011;34673;52.808;17.856;2023-08-12T08:40:42;10.85;;;1.90;;
48853;SDS011;34673;52.808;17.856;2023-08-12T08:43:10;5.30;;;2.00;;
48853;SDS011;34673;52.808;17.856;2023-08-12T08:45:42;3.65;;;1.80;;
48853;SDS011;34673;52.808;17.856;2023-08-12T08:48:11;5.97;;;1.83;;
48853;SDS011;34673;52.808;17.856;2023-08-12T08:50:38;4.90;;;1.50;;
48853;SDS011;34673;52.808;17.856;2023-08-12T08:53:07;6.85;;;1.83;;
48853;SDS011;34673;52.808;17.856;2023-08-12T08:55:35;5.70;;;1.83;;
48853;SDS011;34673;52.808;17.856;2023-08-12T08:58:02;4.18;;;1.88;;
48853;SDS011;34673;52.808;17.856;2023-08-12T09:00:31;4.55;;;1.73;;
48853;SDS011;34673;52.808;17.856;2023-08-12T09:02:59;5.20;;;1.88;;
48853;SDS011;34673;52.808;17.856;2023-08-12T09:05:26;4.82;;;1.67;;
48853;SDS011;34673;52.808;17.856;2023-08-12T09:07:55;6.57;;;2.30;;
48853;SDS011;34673;52.808;17.856;2023-08-12T09:10:26;7.72;;;2.00;;
48853;SDS011;34673;52.808;17.856;2023-08-12T09:12:55;5.30;;;1.70;;
48853;SDS011;34673;52.808;17.856;2023-08-12T09:15:23;4.28;;;1.63;;
48853;SDS011;34673;52.808;17.856;2023-08-12T09:17:51;3.80;;;1.73;;
48853;SDS011;34673;52.808;17.856;2023-08-12T09:20:18;5.03;;;1.70;;
48853;SDS011;34673;52.808;17.856;2023-08-12T09:22:45;7.32;;;1.80;;
48853;SDS011;34673;52.808;17.856;2023-08-12T09:25:21;3.65;;;1.73;;
48853;SDS011;34673;52.808;17.856;2023-08-12T09:27:50;7.38;;;1.90;;
48853;SDS011;34673;52.808;17.856;2023-08-12T09:30:17;4.80;;;1.80;;
48853;SDS011;34673;52.808;17.856;2023-08-12T09:33:08;3.83;;;1.80;;
48853;SDS011;34673;52.808;17.856;2023-08-12T09:35:36;5.22;;;2.00;;
48853;SDS011;34673;52.808;17.856;2023-08-12T09:38:11;4.25;;;1.80;;
48853;SDS011;34673;52.808;17.856;2023-08-12T09:40:39;4.30;;;1.92;;
48853;SDS011;34673;52.808;17.856;2023-08-12T09:43:08;5.75;;;2.05;;
48853;SDS011;34673;52.808;17.856;2023-08-12T09:45:36;4.45;;;1.85;;
48853;SDS011;34673;52.808;17.856;2023-08-12T09:48:03;6.30;;;2.22;;
48853;SDS011;34673;52.808;17.856;2023-08-12T09:50:31;4.82;;;1.98;;
48853;SDS011;34673;52.808;17.856;2023-08-12T09:52:58;5.03;;;1.92;;
48853;SDS011;34673;52.808;17.856;2023-08-12T09:55:27;8.63;;;2.03;;
48853;SDS011;34673;52.808;17.856;2023-08-12T09:57:56;4.85;;;1.55;;
48853;SDS011;34673;52.808;17.856;2023-08-12T10:00:26;3.28;;;1.48;;
48853;SDS011;34673;52.808;17.856;2023-08-12T10:02:53;6.15;;;1.70;;
48853;SDS011;34673;52.808;17.856;2023-08-12T10:05:22;5.32;;;1.63;;
48853;SDS011;34673;52.808;17.856;2023-08-12T10:07:53;4.18;;;1.80;;
48853;SDS011;34673;52.808;17.856;2023-08-12T10:10:21;8.75;;;1.85;;
48853;SDS011;34673;52.808;17.856;2023-08-12T10:12:52;5.22;;;1.77;;
48853;SDS011;34673;52.808;17.856;2023-08-12T10:15:19;3.78;;;1.83;;
48853;SDS011;34673;52.808;17.856;2023-08-12T10:17:48;4.55;;;2.00;;
48853;SDS011;34673;52.808;17.856;2023-08-12T10:20:21;5.63;;;1.92;;
48853;SDS011;34673;52.808;17.856;2023-08-12T10:22:51;4.72;;;1.92;;
48853;SDS011;34673;52.808;17.856;2023-08-12T10:25:19;5.05;;;1.67;;
48853;SDS011;34673;52.808;17.856;2023-08-12T10:27:50;5.85;;;1.90;;
48853;SDS011;34673;52.808;17.856;2023-08-12T10:30:20;4.70;;;1.70;;
48853;SDS011;34673;52.808;17.856;2023-08-12T10:32:47;5.07;;;2.05;;
48853;SDS011;34673;52.808;17.856;2023-08-12T10:35:15;5.43;;;1.88;;
48853;SDS011;34673;52.808;17.856;2023-08-12T10:37:43;5.53;;;2.03;;
48853;SDS011;34673;52.808;17.856;2023-08-12T10:40:19;4.68;;;1.60;;
48853;SDS011;34673;52.808;17.856;2023-08-12T10:42:49;5.00;;;1.67;;
48853;SDS011;34673;52.808;17.856;2023-08-12T10:45:17;2.70;;;1.50;;
48853;SDS011;34673;52.808;17.856;2023-08-12T10:50:36;5.03;;;1.73;;
48853;SDS011;34673;52.808;17.856;2023-08-12T10:53:22;6.60;;;1.80;;
48853;SDS011;34673;52.808;17.856;2023-08-12T10:55:57;3.55;;;1.70;;
48853;SDS011;34673;52.808;17.856;2023-08-12T10:58:26;4.33;;;1.43;;
48853;SDS011;34673;52.808;17.856;2023-08-12T11:01:17;4.68;;;2.08;;
48853;SDS011;34673;52.808;17.856;2023-08-12T11:03:46;4.57;;;1.63;;
48853;SDS011;34673;52.808;17.856;2023-08-12T11:06:15;10.10;;;1.70;;
48853;SDS011;34673;52.808;17.856;2023-08-12T11:08:46;4.50;;;1.60;;
48853;SDS011;34673;52.808;17.856;2023-08-12T11:11:22;5.05;;;1.80;;
48853;SDS011;34673;52.808;17.856;2023-08-12T11:13:56;8.05;;;2.78;;
48853;SDS011;34673;52.808;17.856;2023-08-12T11:16:36;5.57;;;1.90;;
48853;SDS011;34673;52.808;17.856;2023-08-12T11:19:05;4.85;;;1.88;;
48853;SDS011;34673;52.808;17.856;2023-08-12T11:21:33;4.47;;;2.03;;
48853;SDS011;34673;52.808;17.856;2023-08-12T11:24:03;5.40;;;1.60;;
48853;SDS011;34673;52.808;17.856;2023-08-12T11:26:31;4.72;;;1.63;;
48853;SDS011;34673;52.808;17.856;2023-08-12T11:28:58;8.02;;;2.00;;
48853;SDS011;34673;52.808;17.856;2023-08-12T11:31:26;4.18;;;1.50;;
48853;SDS011;34673;52.808;17.856;2023-08-12T11:33:54;5.43;;;1.80;;
48853;SDS011;34673;52.808;17.856;2023-08-12T11:36:21;6.30;;;1.83;;
48853;SDS011;34673;52.808;17.856;2023-08-12T11:38:48;3.70;;;1.58;;
48853;SDS011;34673;52.808;17.856;2023-08-12T11:41:18;5.45;;;2.00;;
48853;SDS011;34673;52.808;17.856;2023-08-12T11:43:45;6.72;;;1.88;;
48853;SDS011;34673;52.808;17.856;2023-08-12T11:46:15;3.50;;;1.50;;
48853;SDS011;34673;52.808;17.856;2023-08-12T11:48:43;3.85;;;1.77;;
48853;SDS011;34673;52.808;17.856;2023-08-12T11:51:10;6.18;;;2.00;;
48853;SDS011;34673;52.808;17.856;2023-08-12T11:53:38;4.93;;;1.83;;
48853;SDS011;34673;52.808;17.856;2023-08-12T11:56:05;3.80;;;1.88;;
48853;SDS011;34673;52.808;17.856;2023-08-12T11:58:36;4.63;;;1.70;;
48853;SDS011;34673;52.808;17.856;2023-08-12T12:01:18;4.22;;;2.03;;
48853;SDS011;34673;52.808;17.856;2023-08-12T12:03:45;3.47;;;1.63;;
48853;SDS011;34673;52.808;17.856;2023-08-12T12:06:27;19.15;;;2.10;;
48853;SDS011;34673;52.808;17.856;2023-08-12T12:09:06;4.10;;;2.10;;
48853;SDS011;34673;52.808;17.856;2023-08-12T12:11:36;5.07;;;1.90;;
48853;SDS011;34673;52.808;17.856;2023-08-12T12:14:04;5.60;;;1.70;;
48853;SDS011;34673;52.808;17.856;2023-08-12T12:16:41;4.03;;;1.77;;
48853;SDS011;34673;52.808;17.856;2023-08-12T12:19:13;5.65;;;1.90;;
48853;SDS011;34673;52.808;17.856;2023-08-12T12:21:42;4.00;;;1.70;;
48853;SDS011;34673;52.808;17.856;2023-08-12T12:24:12;6.40;;;1.80;;
48853;SDS011;34673;52.808;17.856;2023-08-12T12:26:40;5.15;;;1.90;;
48853;SDS011;34673;52.808;17.856;2023-08-12T12:29:08;5.47;;;2.00;;
48853;SDS011;34673;52.808;17.856;2023-08-12T12:31:38;5.55;;;1.73;;
48853;SDS011;34673;52.808;17.856;2023-08-12T12:34:05;5.95;;;1.83;;
48853;SDS011;34673;52.808;17.856;2023-08-12T12:36:34;6.60;;;2.00;;
48853;SDS011;34673;52.808;17.856;2023-08-12T12:39:03;6.95;;;2.20;;
48853;SDS011;34673;52.808;17.856;2023-08-12T12:41:31;7.13;;;2.28;;
48853;SDS011;34673;52.808;17.856;2023-08-12T12:44:00;5.78;;;1.75;;
48853;SDS011;34673;52.808;17.856;2023-08-12T12:46:29;4.40;;;1.80;;
48853;SDS011;34673;52.808;17.856;2023-08-12T12:48:57;5.38;;;2.20;;
48853;SDS011;34673;52.808;17.856;2023-08-12T12:51:24;3.97;;;1.80;;
48853;SDS011;34673;52.808;17.856;2023-08-12T12:53:51;6.32;;;2.05;;
48853;SDS011;34673;52.808;17.856;2023-08-12T12:56:19;6.07;;;2.35;;
48853;SDS011;34673;52.808;17.856;2023-08-12T12:58:46;4.50;;;2.30;;
48853;SDS011;34673;52.808;17.856;2023-08-12T13:01:14;4.00;;;1.90;;
48853;SDS011;34673;52.808;17.856;2023-08-12T13:03:41;7.93;;;2.33;;
48853;SDS011;34673;52.808;17.856;2023-08-12T13:06:08;5.30;;;2.00;;
48853;SDS011;34673;52.808;17.856;2023-08-12T13:08:36;6.70;;;2.08;;
48853;SDS011;34673;52.808;17.856;2023-08-12T13:11:03;5.03;;;2.05;;
48853;SDS011;34673;52.808;17.856;2023-08-12T13:13:30;6.60;;;2.00;;
48853;SDS011;34673;52.808;17.856;2023-08-12T13:15:58;6.47;;;2.05;;
48853;SDS011;34673;52.808;17.856;2023-08-12T13:18:25;4.55;;;1.73;;
48853;SDS011;34673;52.808;17.856;2023-08-12T13:20:52;5.90;;;2.53;;
48853;SDS011;34673;52.808;17.856;2023-08-12T13:23:19;5.13;;;2.20;;
48853;SDS011;34673;52.808;17.856;2023-08-12T13:25:46;4.60;;;2.13;;
48853;SDS011;34673;52.808;17.856;2023-08-12T13:28:14;4.93;;;2.15;;
48853;SDS011;34673;52.808;17.856;2023-08-12T13:30:41;5.40;;;2.47;;
48853;SDS011;34673;52.808;17.856;2023-08-12T13:33:08;5.70;;;2.28;;
48853;SDS011;34673;52.808;17.856;2023-08-12T13:35:35;4.22;;;1.95;;
48853;SDS011;34673;52.808;17.856;2023-08-12T13:38:03;6.88;;;2.40;;
48853;SDS011;34673;52.808;17.856;2023-08-12T13:40:30;4.03;;;2.10;;
48853;SDS011;34673;52.808;17.856;2023-08-12T13:42:57;4.38;;;1.90;;
48853;SDS011;34673;52.808;17.856;2023-08-12T13:45:25;4.85;;;2.30;;
48853;SDS011;34673;52.808;17.856;2023-08-12T13:47:53;3.80;;;2.08;;
48853;SDS011;34673;52.808;17.856;2023-08-12T13:50:20;5.40;;;1.92;;
48853;SDS011;34673;52.808;17.856;2023-08-12T13:52:48;6.80;;;2.22;;
48853;SDS011;34673;52.808;17.856;2023-08-12T13:55:17;6.60;;;2.25;;
48853;SDS011;34673;52.808;17.856;2023-08-12T13:57:44;4.55;;;2.05;;
48853;SDS011;34673;52.808;17.856;2023-08-12T14:00:11;3.83;;;2.03;;
48853;SDS011;34673;52.808;17.856;2023-08-12T14:02:43;4.18;;;2.00;;
48853;SDS011;34673;52.808;17.856;2023-08-12T14:05:11;6.82;;;2.30;;
48853;SDS011;34673;52.808;17.856;2023-08-12T14:07:38;6.85;;;2.20;;
48853;SDS011;34673;52.808;17.856;2023-08-12T14:10:06;4.78;;;1.70;;
48853;SDS011;34673;52.808;17.856;2023-08-12T14:12:34;4.68;;;1.95;;
48853;SDS011;34673;52.808;17.856;2023-08-12T14:15:01;3.95;;;2.03;;
48853;SDS011;34673;52.808;17.856;2023-08-12T14:17:29;5.90;;;2.15;;
48853;SDS011;34673;52.808;17.856;2023-08-12T14:19:56;6.35;;;2.05;;
48853;SDS011;34673;52.808;17.856;2023-08-12T14:22:25;6.05;;;2.10;;
48853;SDS011;34673;52.808;17.856;2023-08-12T14:24:52;6.47;;;2.08;;
48853;SDS011;34673;52.808;17.856;2023-08-12T14:27:25;8.05;;;2.20;;
48853;SDS011;34673;52.808;17.856;2023-08-12T14:29:52;5.18;;;2.05;;
48853;SDS011;34673;52.808;17.856;2023-08-12T14:32:19;5.93;;;2.30;;
48853;SDS011;34673;52.808;17.856;2023-08-12T14:34:46;5.43;;;2.17;;
48853;SDS011;34673;52.808;17.856;2023-08-12T14:37:13;4.60;;;2.30;;
48853;SDS011;34673;52.808;17.856;2023-08-12T14:39:41;6.88;;;2.38;;